»·PEaware :: SOLAR23 KEND-KEND

SOLAR23 :: KEND-KEND

FLIGHT INFORMATION

Flight Status: Arrived
Operator: Unknown
More flights by this operator :: More flights under this callsign
Pilot: Nathaniel H. (21818)
Aircraft: BEECH AIRCRAFT T-6A TEXAN
(TEX2)
More flights by this aircraft type
Origin: KEND Vance AFB
United States
Destination: KEND Vance AFB
United States
More flights between these airports :: More routes between these airports
Route: +DF
File this flight plan on PilotEdge
Remarks:
Altitude:
(Current/Filed)
0ft
Speed:
(Current/Filed)
0kts
Departed: 16-Jul-19 10:22 AM
Arrived: 16-Jul-19 11:09 AM
Distance/Time
Traveled:
0nm/0:47
Distance/Time
To Go:
Arrived

Flight Plot

Page will automatically refresh every two minutes.


Map Options




Map Legend


Flown Route
Filed Route
Departure Airport
Arrival Airport
Navaid (VOR, NDB)
Fix

Horizontal Profiles

Position Reports

Time Latitude Longitude Heading Altitude Ground
Speed
16-Jul-19 10:04 36.337210 -97.908884 180 1292ft 0kts
16-Jul-19 10:05 36.337210 -97.908884 180 1292ft 0kts
16-Jul-19 10:06 36.337210 -97.908884 180 1292ft 0kts
16-Jul-19 10:07 36.337210 -97.908884 180 1292ft 0kts
16-Jul-19 10:08 36.337210 -97.908884 180 1292ft 0kts
16-Jul-19 10:09 36.337210 -97.908884 180 1292ft 0kts
16-Jul-19 10:10 36.337210 -97.908884 180 1292ft 0kts
16-Jul-19 10:11 36.337210 -97.908884 180 1292ft 0kts
16-Jul-19 10:12 36.337210 -97.908884 180 1292ft 0kts
16-Jul-19 10:13 36.337210 -97.908884 180 1292ft 0kts
16-Jul-19 10:14 36.337095 -97.908727 165 1292ft 0kts
16-Jul-19 10:15 36.337095 -97.908727 165 1292ft 0kts
16-Jul-19 10:16 36.337095 -97.908727 165 1292ft 0kts
16-Jul-19 10:17 36.336672 -97.909241 179 1292ft 4kts
16-Jul-19 10:18 36.333552 -97.909255 183 1292ft 14kts
16-Jul-19 10:19 36.330409 -97.910545 261 1294ft 10kts
16-Jul-19 10:20 36.330369 -97.913019 269 1294ft 0kts
16-Jul-19 10:21 36.333170 -97.914692 0 1291ft 77kts
16-Jul-19 10:22 36.377154 -97.913496 3 2247ft 198kts
16-Jul-19 10:23 36.427459 -97.907883 351 4888ft 183kts
16-Jul-19 10:24 36.489850 -97.901615 3 4998ft 251kts
16-Jul-19 10:25 36.557141 -97.900319 0 4893ft 238kts
16-Jul-19 10:26 36.622523 -97.892143 2 4951ft 233kts
16-Jul-19 10:27 36.687220 -97.885934 1 4246ft 235kts
16-Jul-19 10:28 36.738069 -97.916479 272 2344ft 225kts
16-Jul-19 10:29 36.739447 -97.996857 266 2301ft 235kts
16-Jul-19 10:30 36.721916 -98.068011 239 2272ft 203kts
16-Jul-19 10:31 36.670593 -98.073412 181 1749ft 165kts
16-Jul-19 10:32 36.652774 -98.105141 276 1780ft 139kts
16-Jul-19 10:33 36.687519 -98.125636 359 1745ft 151kts
16-Jul-19 10:34 36.727646 -98.123994 1 1176ft 118kts
16-Jul-19 10:35 36.754694 -98.110039 166 2240ft 132kts
16-Jul-19 10:36 36.721568 -98.106936 181 2269ft 115kts
16-Jul-19 10:37 36.727607 -98.123909 2 1181ft 123kts
16-Jul-19 10:38 36.753850 -98.110188 167 2204ft 144kts
16-Jul-19 10:39 36.716959 -98.105044 185 2308ft 117kts
16-Jul-19 10:40 36.731435 -98.123746 2 1188ft 100kts
16-Jul-19 10:41 36.746695 -98.109913 182 2377ft 127kts
16-Jul-19 10:42 36.713235 -98.109493 238 2130ft 115kts
16-Jul-19 10:43 36.738012 -98.123728 1 1291ft 126kts
16-Jul-19 10:44 36.761111 -98.087976 82 2926ft 192kts
16-Jul-19 10:45 36.767876 -98.017803 86 5041ft 202kts
16-Jul-19 10:46 36.770695 -97.943377 88 6204ft 245kts
16-Jul-19 10:47 36.750091 -97.866447 138 6541ft 236kts
16-Jul-19 10:48 36.693198 -97.822198 174 6256ft 251kts
16-Jul-19 10:49 36.623771 -97.811496 165 6037ft 247kts
16-Jul-19 10:50 36.556181 -97.795116 171 5995ft 247kts
16-Jul-19 10:51 36.487426 -97.788898 180 6053ft 249kts
16-Jul-19 10:52 36.417315 -97.786839 180 5993ft 253kts
16-Jul-19 10:53 36.347644 -97.793706 188 5590ft 244kts
16-Jul-19 10:54 36.283047 -97.800721 187 4596ft 222kts
16-Jul-19 10:55 36.222128 -97.814857 206 3044ft 219kts
16-Jul-19 10:56 36.203975 -97.880072 268 2316ft 207kts
16-Jul-19 10:57 36.252330 -97.907483 356 2340ft 214kts
16-Jul-19 10:58 36.312569 -97.914172 357 2240ft 218kts
16-Jul-19 10:59 36.328454 -97.899541 184 2313ft 106kts
16-Jul-19 11:00 36.334442 -97.914636 0 1290ft 100kts
16-Jul-19 11:01 36.370670 -97.899568 92 1828ft 210kts
16-Jul-19 11:02 36.347323 -97.854450 178 2338ft 193kts
16-Jul-19 11:04 36.291553 -97.853622 180 2258ft 205kts
16-Jul-19 11:05 36.285715 -97.903169 323 2279ft 216kts
16-Jul-19 11:06 36.345972 -97.914149 0 2370ft 222kts
16-Jul-19 11:07 36.327290 -97.898666 179 2341ft 118kts
16-Jul-19 11:08 36.316690 -97.913054 336 1831ft 142kts
16-Jul-19 11:09 36.341319 -97.914013 134 1282ft 0kts

Navigation Log

Ident Type
Flight plan parsing failed, navigation log unavailable